Time;durP1;ratioP1;P1;durP2;ratioP2;P2;SDS_P1;SDS_P2;PMS_P1;PMS_P2;Temp;Humidity;BMP_temperature;BMP_pressure;BME280_temperature;BME280_humidity;BME280_pressure;Samples;Min_cycle;Max_cycle;Signal;HPM_P1;HPM_P2
2022/01/28 00:01:06;;;;;;;18.35;2.88;;;;;;;3.85;92.75;102467.81;5082075;28;20034;-75
2022/01/28 00:03:37;;;;;;;9.73;2.30;;;;;;;3.92;92.60;102489.31;5108287;28;20031;-75
2022/01/28 00:06:03;;;;;;;15.45;2.83;;;;;;;3.95;92.61;102478.72;5095304;28;20494;-75
2022/01/28 00:08:29;;;;;;;9.75;2.65;;;;;;;3.94;92.36;102492.69;5104641;28;20024;-75
2022/01/28 00:10:55;;;;;;;8.23;1.90;;;;;;;3.76;93.10;102483.06;5077842;27;20043;-75
2022/01/28 00:16:10;;;;;;;11.45;1.40;;;;;;;3.74;94.03;102496.16;5102892;28;20036;-75
2022/01/28 00:37:59;;;;;;;14.27;2.03;;;;;;;3.69;92.86;102534.69;5077569;28;20035;-75
2022/01/28 00:40:09;;;;;;;6.28;1.10;;;;;;;3.71;93.95;102532.88;5100362;28;20040;-75
2022/01/28 00:42:34;;;;;;;12.38;2.53;;;;;;;3.73;93.83;102553.69;5071109;28;20043;-75
2022/01/28 00:45:01;;;;;;;16.50;2.88;;;;;;;3.74;94.72;102544.94;5096827;28;20027;-76
2022/01/28 00:47:26;;;;;;;9.48;1.42;;;;;;;3.69;95.17;102534.69;5080714;28;20035;-75
2022/01/28 00:49:52;;;;;;;10.68;1.58;;;;;;;3.55;94.68;102522.22;5106459;28;20042;-76
2022/01/28 00:52:17;;;;;;;11.65;3.97;;;;;;;3.59;94.01;102539.44;5046621;28;20029;-76
2022/01/28 00:54:42;;;;;;;7.35;1.85;;;;;;;3.60;94.84;102535.91;5089417;28;20391;-76
2022/01/28 00:57:08;;;;;;;11.18;2.42;;;;;;;3.53;95.02;102534.47;5082992;28;20032;-75
2022/01/28 00:59:33;;;;;;;11.82;1.35;;;;;;;3.55;95.47;102547.44;5103159;28;20533;-75
2022/01/28 01:01:58;;;;;;;4.47;1.17;;;;;;;3.53;96.23;102560.59;5075910;28;20137;-75
2022/01/28 01:04:24;;;;;;;7.63;1.92;;;;;;;3.44;96.58;102561.81;5080776;28;20058;-75
2022/01/28 01:06:50;;;;;;;7.28;1.45;;;;;;;3.32;96.78;102545.78;5108216;28;20116;-75
2022/01/28 01:09:15;;;;;;;12.73;1.40;;;;;;;3.33;97.44;102556.13;5065354;28;20032;-75
2022/01/28 01:11:41;;;;;;;17.33;3.28;;;;;;;3.34;97.94;102570.06;5066422;28;20036;-75
2022/01/28 01:14:07;;;;;;;10.50;2.15;;;;;;;3.32;97.13;102590.16;5055768;28;20119;-75
2022/01/28 01:16:43;;;;;;;15.13;3.70;;;;;;;3.16;97.09;102572.47;5088790;28;20098;-75
2022/01/28 01:21:38;;;;;;;5.22;1.88;;;;;;;3.10;97.09;102580.53;5101778;28;20491;-75
2022/01/28 01:24:04;;;;;;;7.05;1.80;;;;;;;3.19;97.30;102592.38;5107014;28;20024;-75
2022/01/28 01:26:32;;;;;;;10.00;2.80;;;;;;;3.16;96.61;102605.53;5086971;28;20489;-75
2022/01/28 01:28:58;;;;;;;6.55;2.10;;;;;;;3.19;95.67;102597.59;5099856;28;20028;-75
2022/01/28 01:31:24;;;;;;;20.83;2.40;;;;;;;3.23;94.34;102596.56;5072711;28;20036;-75
2022/01/28 01:34:00;;;;;;;16.83;2.28;;;;;;;3.15;93.27;102581.19;5096706;28;20452;-75
2022/01/28 01:36:25;;;;;;;6.75;1.38;;;;;;;3.06;91.65;102563.31;5101342;28;20032;-75
2022/01/28 01:38:51;;;;;;;8.88;1.30;;;;;;;3.36;90.63;102604.78;5077990;28;20040;-75
2022/01/28 01:41:27;;;;;;;11.00;1.65;;;;;;;3.44;88.59;102623.56;5093196;28;20030;-75
2022/01/28 01:52:02;;;;;;;12.30;1.70;;;;;;;3.78;87.05;102649.22;5008486;28;20045;-76
2022/01/28 01:54:33;;;;;;;5.97;1.43;;;;;;;3.85;86.67;102657.66;5021313;28;20037;-76
2022/01/28 01:56:59;;;;;;;7.78;2.05;;;;;;;3.79;87.08;102655.28;5012258;28;20585;-76
2022/01/28 01:59:24;;;;;;;10.45;2.28;;;;;;;3.82;87.44;102655.16;5013154;28;20034;-75
2022/01/28 02:01:49;;;;;;;13.82;1.50;;;;;;;3.86;87.34;102644.53;5017347;28;20056;-76
2022/01/28 02:04:15;;;;;;;16.45;2.33;;;;;;;3.97;88.96;102672.84;5012066;28;20033;-76
2022/01/28 02:06:41;;;;;;;13.85;3.65;;;;;;;3.89;90.05;102669.66;5017802;28;20124;-76
2022/01/28 02:09:08;;;;;;;8.48;2.47;;;;;;;4.01;90.32;102695.31;5002858;28;20493;-76
2022/01/28 02:11:34;;;;;;;24.65;3.58;;;;;;;3.92;91.72;102669.56;5006860;28;20037;-75
2022/01/28 02:14:00;;;;;;;11.90;2.53;;;;;;;3.95;93.44;102697.31;5014568;28;20490;-75
2022/01/28 02:16:26;;;;;;;10.13;1.50;;;;;;;4.02;94.06;102707.44;4995435;28;20521;-75
2022/01/28 02:18:55;;;;;;;25.10;2.53;;;;;;;4.02;93.96;102707.44;5019113;28;20077;-75
2022/01/28 02:21:20;;;;;;;8.80;1.63;;;;;;;3.88;94.00;102692.34;5021933;28;20052;-75
2022/01/28 02:23:50;;;;;;;13.77;1.67;;;;;;;3.94;93.69;102703.44;5001833;28;20403;-75
2022/01/28 02:26:16;;;;;;;15.30;3.28;;;;;;;4.02;93.44;102730.13;5008632;28;20052;-75
2022/01/28 02:28:46;;;;;;;11.48;1.90;;;;;;;4.01;92.69;102731.88;5042405;28;20036;-75
2022/01/28 02:31:12;;;;;;;11.60;1.75;;;;;;;4.07;92.58;102729.03;5085655;28;20478;-75
2022/01/28 02:33:38;;;;;;;11.77;2.28;;;;;;;4.01;92.33;102711.00;5104439;28;20034;-75
2022/01/28 02:36:06;;;;;;;7.28;1.27;;;;;;;4.05;92.55;102709.97;5068420;28;20046;-75
2022/01/28 02:38:32;;;;;;;7.45;1.58;;;;;;;4.11;91.66;102724.53;5080837;28;20028;-75
2022/01/28 02:41:00;;;;;;;14.02;4.05;;;;;;;4.17;89.54;102749.56;5091972;28;20117;-75
2022/01/28 02:45:55;;;;;;;15.45;2.47;;;;;;;4.25;88.60;102760.56;5081949;28;20554;-75
2022/01/28 02:48:25;;;;;;;18.35;2.45;;;;;;;4.24;87.43;102757.09;5082506;28;20020;-75
2022/01/28 02:53:25;;;;;;;8.70;1.92;;;;;;;4.20;85.49;102771.19;5089322;28;20039;-75
2022/01/28 02:55:58;;;;;;;8.43;2.22;;;;;;;3.95;84.40;102729.50;5096574;28;20020;-75
2022/01/28 02:58:25;;;;;;;11.23;1.55;;;;;;;4.13;84.21;102770.56;5106065;28;20028;-75
2022/01/28 03:00:52;;;;;;;11.80;1.67;;;;;;;4.11;84.13;102768.94;5104048;28;20028;-75
2022/01/28 03:03:19;;;;;;;11.25;1.25;;;;;;;4.01;84.18;102744.97;5103755;28;20031;-75
2022/01/28 03:05:45;;;;;;;16.35;1.90;;;;;;;4.17;83.51;102765.25;5082616;28;20035;-75
2022/01/28 03:08:12;;;;;;;14.43;2.28;;;;;;;4.15;84.11;102772.28;5088358;28;20467;-76
2022/01/28 03:15:35;;;;;;;17.85;1.90;;;;;;;4.26;83.87;102791.00;5063086;28;20043;-75
2022/01/28 03:18:12;;;;;;;13.23;1.88;;;;;;;4.28;84.64;102790.03;5089648;28;20027;-75
2022/01/28 03:20:54;;;;;;;7.55;1.63;;;;;;;4.29;84.33;102794.38;5074411;28;20036;-75
2022/01/28 03:23:20;;;;;;;8.93;1.27;;;;;;;4.27;83.36;102790.97;5099711;28;20115;-76
2022/01/28 03:25:47;;;;;;;8.10;1.58;;;;;;;4.25;82.67;102797.16;5106603;28;20111;-76
2022/01/28 03:28:14;;;;;;;10.18;1.85;;;;;;;4.31;83.56;102799.50;5060709;28;20020;-76
2022/01/28 03:30:40;;;;;;;9.25;1.60;;;;;;;4.28;83.30;102800.50;5083740;28;20019;-76
2022/01/28 03:33:05;;;;;;;14.82;2.08;;;;;;;4.32;83.90;102811.69;5080023;28;20384;-76
2022/01/28 03:35:33;;;;;;;11.50;1.75;;;;;;;4.33;83.54;102802.91;5106577;28;20471;-76
2022/01/28 03:38:00;;;;;;;16.80;1.85;;;;;;;4.29;83.16;102804.81;5073522;28;20059;-76
2022/01/28 03:40:27;;;;;;;15.43;1.92;;;;;;;4.35;84.16;102822.00;5081879;28;20475;-76
2022/01/28 03:42:52;;;;;;;10.05;1.45;;;;;;;4.38;84.32;102828.88;5076264;28;20035;-76
2022/01/28 03:45:18;;;;;;;12.65;2.38;;;;;;;4.40;85.01;102833.16;5103367;28;20053;-76
2022/01/28 03:47:43;;;;;;;8.43;1.70;;;;;;;4.38;85.42;102842.81;5107505;28;20038;-76
2022/01/28 03:50:09;;;;;;;11.80;2.60;;;;;;;4.39;85.47;102848.88;5084147;28;20468;-75
2022/01/28 03:52:35;;;;;;;13.95;2.90;;;;;;;4.33;86.30;102843.00;5101952;28;20228;-75
2022/01/28 03:55:00;;;;;;;14.30;2.58;;;;;;;4.27;86.69;102829.31;5107705;28;20258;-75
2022/01/28 03:57:25;;;;;;;11.40;1.85;;;;;;;4.43;86.79;102855.69;5069354;28;20039;-75
2022/01/28 03:59:51;;;;;;;12.90;3.25;;;;;;;4.32;85.44;102835.22;5104246;28;20020;-75
2022/01/28 04:02:21;;;;;;;10.95;2.38;;;;;;;4.46;85.41;102856.41;5059284;28;20523;-75
2022/01/28 04:12:49;;;;;;;13.45;2.45;;;;;;;4.51;84.88;102859.72;5097022;27;20084;-75
2022/01/28 04:17:46;;;;;;;;;;;;;;;4.55;85.51;102878.72;5099059;28;20040;-74
2022/01/28 04:20:11;;;;;;;11.63;2.15;;;;;;;4.60;85.17;102884.66;5096664;28;19972;-75
2022/01/28 04:22:37;;;;;;;13.45;2.40;;;;;;;4.61;86.25;102888.09;5073071;28;20289;-75
2022/01/28 04:25:02;;;;;;;17.05;1.73;;;;;;;4.59;85.97;102882.09;5091677;28;20472;-75
2022/01/28 04:27:28;;;;;;;13.45;2.63;;;;;;;4.48;86.83;102870.28;5078505;28;20085;-75
2022/01/28 04:29:53;;;;;;;12.50;2.60;;;;;;;4.60;87.40;102887.25;5055677;28;20016;-75
2022/01/28 04:32:20;;;;;;;8.60;2.40;;;;;;;4.58;87.37;102893.47;5095304;28;20020;-75
2022/01/28 04:34:46;;;;;;;23.27;2.42;;;;;;;4.54;88.02;102877.03;5097041;28;20032;-75
2022/01/28 04:40:13;;;;;;;8.75;2.50;;;;;;;4.58;87.93;102896.09;5091539;28;20197;-75
2022/01/28 04:47:46;;;;;;;6.55;1.98;;;;;;;4.58;89.33;102896.09;5065649;28;20054;-76
2022/01/28 04:51:24;;;;;;;14.43;2.78;;;;;;;4.46;89.57;102894.78;5075159;28;20031;-75
2022/01/28 05:27:22;;;;;;;16.52;1.75;;;;;;;4.47;86.07;102957.50;5075080;28;20067;-75
2022/01/28 05:29:40;;;;;;;;;;;;;;;4.48;85.70;102960.94;5073689;28;20024;-74
2022/01/28 05:32:07;;;;;;;9.10;2.45;;;;;;;4.47;86.33;102960.09;5072408;28;19908;-75
2022/01/28 05:34:32;;;;;;;16.63;2.33;;;;;;;4.33;87.01;102933.63;5073766;28;20114;-75
2022/01/28 05:36:58;;;;;;;13.75;2.65;;;;;;;4.39;87.69;102951.69;5062414;28;20546;-75
2022/01/28 05:39:23;;;;;;;22.58;3.45;;;;;;;4.51;88.01;102959.09;5072387;28;20406;-75
2022/01/28 05:41:49;;;;;;;14.52;2.85;;;;;;;4.51;87.89;102958.25;5072022;28;20034;-75
2022/01/28 05:44:14;;;;;;;10.32;2.67;;;;;;;4.47;87.08;102956.66;5072945;28;20036;-75
2022/01/28 05:46:40;;;;;;;11.00;2.28;;;;;;;4.47;87.71;102957.50;5091564;28;20130;-75
2022/01/28 05:49:06;;;;;;;19.17;3.13;;;;;;;4.46;87.80;102962.78;5072240;28;20020;-74
2022/01/28 05:51:31;;;;;;;15.05;2.35;;;;;;;4.58;87.56;102990.22;5089741;28;20019;-75
2022/01/28 05:53:59;;;;;;;9.75;2.00;;;;;;;4.59;88.25;102986.69;5088008;28;20058;-75
2022/01/28 05:56:26;;;;;;;16.30;2.10;;;;;;;4.48;88.88;102982.72;5088793;28;20081;-75
2022/01/28 05:58:52;;;;;;;14.88;2.78;;;;;;;4.53;89.88;102993.03;5091972;28;20019;-76
2022/01/28 06:01:18;;;;;;;12.55;2.78;;;;;;;4.48;90.55;103005.41;5090491;28;20024;-75
2022/01/28 06:03:44;;;;;;;20.50;3.53;;;;;;;4.40;90.14;102992.63;5088807;28;20051;-75
2022/01/28 06:06:18;;;;;;;11.70;2.50;;;;;;;4.49;90.10;103018.44;5074225;28;20023;-75
2022/01/28 06:08:44;;;;;;;17.02;3.22;;;;;;;4.47;89.98;103019.41;5071254;28;20544;-75
2022/01/28 06:11:09;;;;;;;13.95;2.53;;;;;;;4.46;89.77;103022.91;5075379;28;20526;-76
2022/01/28 06:13:35;;;;;;;16.00;2.88;;;;;;;4.47;90.20;103037.72;5088969;28;20028;-75
2022/01/28 06:16:00;;;;;;;11.43;2.50;;;;;;;4.39;89.42;103052.81;5090408;28;20035;-75
2022/01/28 06:18:25;;;;;;;15.38;2.55;;;;;;;4.32;87.59;103058.25;5087867;28;20035;-75
2022/01/28 06:20:51;;;;;;;32.92;3.63;;;;;;;4.29;86.40;103063.59;5091252;28;20067;-75
2022/01/28 06:23:17;;;;;;;14.27;1.90;;;;;;;4.26;84.92;103053.25;5075333;28;20490;-75
2022/01/28 06:25:44;;;;;;;12.73;1.75;;;;;;;4.27;84.11;103064.56;5087806;28;20089;-75
2022/01/28 06:28:09;;;;;;;18.30;2.35;;;;;;;4.16;82.93;103045.78;5086464;28;20036;-76
2022/01/28 06:30:34;;;;;;;14.38;2.47;;;;;;;4.27;82.29;103070.66;5053945;28;20090;-75
2022/01/28 06:33:00;;;;;;;14.95;2.05;;;;;;;4.15;81.17;103050.16;5069053;28;20040;-76
2022/01/28 06:35:25;;;;;;;15.52;3.13;;;;;;;4.27;80.65;103072.41;5073163;28;20136;-75
2022/01/28 06:37:50;;;;;;;9.85;2.03;;;;;;;4.26;80.86;103068.94;5098420;28;20036;-75
2022/01/28 06:40:17;;;;;;;11.98;1.25;;;;;;;4.23;81.32;103062.97;5073842;28;20047;-75
2022/01/28 06:42:43;;;;;;;13.35;2.35;;;;;;;4.18;81.12;103075.34;5094744;27;20039;-76
2022/01/28 06:45:09;;;;;;;13.45;2.17;;;;;;;4.16;81.55;103071.91;5093655;28;20028;-75
2022/01/28 06:47:35;;;;;;;15.77;2.05;;;;;;;4.05;82.07;103065.31;5095640;28;20081;-75
2022/01/28 06:50:04;;;;;;;14.55;2.40;;;;;;;4.05;83.03;103086.22;5092594;28;20023;-76
2022/01/28 06:52:30;;;;;;;13.60;2.05;;;;;;;3.99;83.19;103069.91;5090440;28;20102;-76
2022/01/28 06:54:55;;;;;;;10.75;1.75;;;;;;;3.89;83.38;103058.91;5060888;28;20150;-76
2022/01/28 06:57:21;;;;;;;13.48;2.42;;;;;;;4.03;84.08;103085.44;5077986;28;20024;-76
2022/01/28 06:59:46;;;;;;;12.52;2.65;;;;;;;3.97;85.26;103076.94;5094392;28;20034;-77
2022/01/28 07:02:12;;;;;;;10.00;2.45;;;;;;;3.87;85.10;103064.16;5060339;28;20409;-76
2022/01/28 07:04:37;;;;;;;7.50;1.65;;;;;;;4.01;85.55;103089.84;5062409;28;20030;-77
2022/01/28 07:07:03;;;;;;;6.32;1.80;;;;;;;3.98;85.63;103095.16;5077997;28;20040;-76
2022/01/28 07:09:28;;;;;;;8.40;1.52;;;;;;;3.96;84.88;103094.34;5079561;28;20102;-76
2022/01/28 07:11:54;;;;;;;9.57;1.90;;;;;;;3.81;85.78;103071.38;5077425;28;20428;-76
2022/01/28 07:14:19;;;;;;;9.82;1.95;;;;;;;3.85;85.80;103088.66;5074474;28;20034;-77
2022/01/28 07:16:45;;;;;;;15.82;2.30;;;;;;;3.87;86.02;103086.84;5062358;28;20032;-77
2022/01/28 07:19:10;;;;;;;9.48;2.42;;;;;;;3.81;86.06;103082.69;5077739;28;20115;-77
2022/01/28 07:21:35;;;;;;;18.48;2.65;;;;;;;3.86;86.81;103103.44;5076582;28;20339;-77
2022/01/28 07:24:02;;;;;;;17.67;1.50;;;;;;;3.81;86.43;103087.03;5075663;28;20036;-77
2022/01/28 07:26:27;;;;;;;7.70;2.03;;;;;;;3.96;86.47;103106.56;5073891;28;20048;-77
2022/01/28 07:28:53;;;;;;;14.45;1.98;;;;;;;3.95;86.21;103108.34;5076643;28;20052;-77
2022/01/28 07:31:19;;;;;;;12.63;2.15;;;;;;;4.03;85.90;103115.91;5076956;28;20039;-77
2022/01/28 07:33:45;;;;;;;9.77;2.03;;;;;;;4.08;86.92;103133.16;5078589;28;20518;-76
2022/01/28 07:36:10;;;;;;;12.02;2.00;;;;;;;4.01;87.04;103115.13;5077005;28;20038;-76
2022/01/28 07:38:36;;;;;;;10.23;2.30;;;;;;;4.04;87.54;103115.88;5073652;28;20032;-77
2022/01/28 07:41:01;;;;;;;21.70;3.67;;;;;;;4.13;87.63;103139.06;5075980;28;20531;-77
2022/01/28 07:43:27;;;;;;;10.07;2.28;;;;;;;4.17;87.74;103142.44;5069678;28;20036;-76
2022/01/28 07:45:53;;;;;;;18.45;2.88;;;;;;;4.21;87.46;103149.28;5072477;28;20115;-77
2022/01/28 07:48:18;;;;;;;11.40;2.60;;;;;;;4.21;86.91;103143.19;5078867;28;20115;-77
2022/01/28 07:50:44;;;;;;;13.13;2.65;;;;;;;4.03;86.83;103108.94;5076706;28;20085;-77
2022/01/28 07:53:14;;;;;;;8.75;1.75;;;;;;;4.09;86.97;103131.38;5063015;28;20028;-77
2022/01/28 07:55:39;;;;;;;20.25;1.98;;;;;;;4.25;87.20;103163.09;5068543;28;20036;-76
2022/01/28 07:58:04;;;;;;;9.90;1.88;;;;;;;4.24;88.35;103159.63;5073954;28;20105;-76
2022/01/28 08:00:30;;;;;;;18.75;1.40;;;;;;;4.17;88.01;103168.56;5070478;28;20050;-76
2022/01/28 08:02:55;;;;;;;8.73;2.80;;;;;;;4.04;88.69;103162.91;5076517;28;20059;-76
2022/01/28 08:05:20;;;;;;;18.15;2.92;;;;;;;3.96;88.56;103151.84;5072667;28;20067;-77
2022/01/28 08:07:47;;;;;;;14.13;2.83;;;;;;;4.06;88.74;103170.69;5060887;28;20028;-77
2022/01/28 08:10:16;;;;;;;16.27;1.92;;;;;;;4.00;88.98;103153.44;5060759;28;20027;-77
2022/01/28 08:12:51;;;;;;;12.50;2.53;;;;;;;4.11;89.49;103169.63;5069977;28;20483;-76
2022/01/28 08:15:17;;;;;;;16.33;2.08;;;;;;;4.13;89.36;103169.59;5079172;28;20012;-76
2022/01/28 08:17:43;;;;;;;15.40;2.50;;;;;;;4.08;89.25;103164.50;5078908;28;20107;-76
2022/01/28 08:20:09;;;;;;;16.08;1.52;;;;;;;4.25;88.27;103173.56;5077895;28;20107;-77
2022/01/28 08:22:52;;;;;;;13.13;1.88;;;;;;;4.44;88.94;103177.25;5079561;28;20028;-76
2022/01/28 08:25:21;;;;;;;9.57;2.75;;;;;;;4.79;87.99;103188.25;5080901;28;20032;-76
2022/01/28 08:27:47;;;;;;;9.48;2.63;;;;;;;4.87;86.02;103180.94;5075196;28;20036;-76
2022/01/28 08:30:14;;;;;;;20.95;2.88;;;;;;;5.12;85.46;103185.31;5075502;28;20483;-76
2022/01/28 08:32:40;;;;;;;15.73;2.15;;;;;;;5.16;83.96;103176.41;5079294;28;20047;-77
2022/01/28 08:35:07;;;;;;;14.60;2.40;;;;;;;5.20;83.16;103196.31;5075662;28;20034;-77
2022/01/28 08:37:33;;;;;;;20.30;2.33;;;;;;;5.12;83.32;103190.53;5077269;28;20502;-77
2022/01/28 08:39:59;;;;;;;16.42;2.70;;;;;;;5.15;83.67;103200.88;5077586;28;20033;-77
2022/01/28 08:42:25;;;;;;;11.23;1.55;;;;;;;5.25;83.63;103204.88;5079926;28;20445;-77
2022/01/28 08:44:50;;;;;;;17.02;2.00;;;;;;;5.30;84.00;103205.53;5068308;28;20028;-77
2022/01/28 08:47:16;;;;;;;10.95;1.75;;;;;;;5.26;83.70;103188.25;5080226;28;20036;-77
2022/01/28 08:49:41;;;;;;;12.57;2.75;;;;;;;5.38;84.00;103212.25;5042017;28;20028;-76
2022/01/28 08:52:06;;;;;;;12.15;1.88;;;;;;;5.29;84.22;103214.31;5073829;28;20040;-76
2022/01/28 08:54:32;;;;;;;6.60;1.45;;;;;;;5.07;84.37;103200.31;5069014;28;20047;-76
2022/01/28 08:56:57;;;;;;;20.58;2.78;;;;;;;5.08;85.38;103197.63;5073775;28;20492;-76
2022/01/28 08:59:23;;;;;;;13.30;2.63;;;;;;;5.30;84.43;103213.41;5061874;28;20502;-77
2022/01/28 09:01:48;;;;;;;7.85;1.70;;;;;;;5.70;84.32;103214.47;5062609;28;20126;-76
2022/01/28 09:04:15;;;;;;;7.28;1.80;;;;;;;5.69;83.58;103225.88;5093666;28;20044;-76
2022/01/28 09:06:41;;;;;;;16.23;1.40;;;;;;;5.69;83.33;103228.50;5089002;28;20089;-76
2022/01/28 09:09:06;;;;;;;12.27;1.83;;;;;;;5.73;83.91;103232.72;5091998;28;20081;-76
2022/01/28 09:11:47;;;;;;;19.27;2.67;;;;;;;5.95;84.04;103239.78;5077770;28;20039;-77
2022/01/28 09:14:14;;;;;;;12.70;2.22;;;;;;;6.31;83.50;103236.56;5080275;28;20089;-77
2022/01/28 09:16:40;;;;;;;12.35;2.17;;;;;;;6.61;82.19;103225.69;5095354;28;20027;-78
2022/01/28 09:19:06;;;;;;;16.17;3.30;;;;;;;6.72;80.73;103233.97;5098320;28;20031;-78
2022/01/28 09:21:32;;;;;;;14.50;3.78;;;;;;;6.50;79.44;103232.25;5093296;28;20399;-78
2022/01/28 09:23:57;;;;;;;11.63;1.80;;;;;;;6.57;79.93;103246.81;5083287;28;20126;-78
2022/01/28 09:26:23;;;;;;;10.45;2.60;;;;;;;6.56;79.94;103258.22;5079196;28;20419;-78
2022/01/28 09:28:48;;;;;;;10.85;2.15;;;;;;;6.57;80.36;103244.19;5094684;28;20027;-78
2022/01/28 09:31:14;;;;;;;7.45;1.70;;;;;;;6.98;80.69;103259.91;5074578;28;20038;-78
2022/01/28 09:33:39;;;;;;;18.05;2.50;;;;;;;8.85;81.29;103273.00;5078065;28;20019;-78
2022/01/28 09:36:07;;;;;;;11.90;2.10;;;;;;;10.63;75.39;103267.59;5096085;28;20035;-79
2022/01/28 09:38:33;;;;;;;8.73;2.10;;;;;;;12.03;68.98;103267.69;5095458;28;20467;-78
2022/01/28 09:41:01;;;;;;;10.43;2.38;;;;;;;12.74;64.19;103270.94;5100525;27;20414;-78
2022/01/28 09:43:27;;;;;;;11.32;1.88;;;;;;;12.78;62.48;103269.75;5085421;28;20050;-78
2022/01/28 09:45:53;;;;;;;12.65;2.13;;;;;;;12.80;62.57;103257.25;5077530;28;20024;-78
2022/01/28 09:48:19;;;;;;;12.55;2.00;;;;;;;13.23;61.73;103278.13;5061051;28;20027;-78
2022/01/28 09:50:46;;;;;;;11.27;1.88;;;;;;;12.91;59.79;103283.00;5076593;28;20039;-78
2022/01/28 09:53:13;;;;;;;13.35;2.45;;;;;;;12.98;62.64;103268.41;5061875;28;20220;-78
2022/01/28 09:55:39;;;;;;;11.43;2.83;;;;;;;14.39;60.27;103284.75;5093867;28;20459;-78
2022/01/28 09:58:05;;;;;;;14.70;3.58;;;;;;;14.68;57.45;103279.06;5099910;28;20110;-78
2022/01/28 10:00:33;;;;;;;11.65;1.90;;;;;;;14.95;56.23;103256.63;5095328;28;20072;-79
2022/01/28 10:03:00;;;;;;;7.32;1.80;;;;;;;14.81;55.92;103292.25;5096326;28;20043;-75
2022/01/28 10:05:34;;;;;;;17.58;2.85;;;;;;;15.14;55.93;103298.59;5096689;28;20032;-77
2022/01/28 10:08:04;;;;;;;14.95;2.58;;;;;;;14.95;55.86;103292.03;5095387;28;20024;-76
2022/01/28 10:11:01;;;;;;;11.65;2.35;;;;;;;14.47;56.02;103286.81;5097882;28;20431;-76
2022/01/28 10:13:47;;;;;;;12.15;2.30;;;;;;;13.47;57.40;103296.78;5097110;28;20699;-74
2022/01/28 10:16:14;;;;;;;12.52;2.67;;;;;;;12.36;58.58;103284.94;5093556;28;20451;-73
2022/01/28 10:18:41;;;;;;;11.40;2.30;;;;;;;12.07;60.60;103302.75;5094669;28;20032;-76
2022/01/28 10:21:27;;;;;;;16.02;2.70;;;;;;;11.53;61.31;103309.63;5093873;28;20490;-77
2022/01/28 10:24:05;;;;;;;11.48;1.95;;;;;;;11.21;62.27;103327.47;5087525;28;20054;-77
2022/01/28 10:26:45;;;;;;;12.25;2.28;;;;;;;10.82;62.71;103338.66;5090231;28;20103;-77
2022/01/28 10:29:14;;;;;;;12.82;2.08;;;;;;;10.96;63.36;103341.34;5089780;28;20028;-77
2022/01/28 10:31:45;;;;;;;13.60;1.48;;;;;;;12.38;63.44;103332.53;5097065;28;20031;-76
2022/01/28 10:34:14;;;;;;;11.45;2.33;;;;;;;14.37;58.31;103331.84;5098690;28;20032;-77
2022/01/28 10:36:39;;;;;;;9.52;1.67;;;;;;;15.82;54.03;103302.88;5094183;28;20036;-76
2022/01/28 10:39:05;;;;;;;8.70;1.92;;;;;;;17.01;53.02;103317.03;5065516;28;20070;-76
2022/01/28 10:41:30;;;;;;;10.10;2.08;;;;;;;17.90;49.25;103303.88;5082038;28;20479;-76
2022/01/28 10:43:57;;;;;;;12.90;2.30;;;;;;;17.42;49.31;103304.56;5080770;28;20028;-76
2022/01/28 10:46:27;;;;;;;11.38;2.17;;;;;;;16.33;50.04;103301.41;5093113;28;20020;-76
2022/01/28 10:48:54;;;;;;;16.42;2.60;;;;;;;15.26;51.65;103312.72;5099213;28;20135;-76
2022/01/28 10:51:21;;;;;;;7.13;1.90;;;;;;;14.63;52.39;103305.13;5095321;28;20563;-76
2022/01/28 10:54:02;;;;;;;10.55;2.22;;;;;;;14.19;52.43;103294.19;5098556;28;20483;-76
2022/01/28 10:56:27;;;;;;;9.97;2.33;;;;;;;14.42;54.19;103288.16;5095891;28;20027;-76
2022/01/28 10:58:53;;;;;;;10.00;2.17;;;;;;;14.89;54.34;103286.34;5073665;28;20293;-77
2022/01/28 11:01:19;;;;;;;8.13;1.80;;;;;;;14.83;53.81;103282.34;5057668;28;20084;-76
2022/01/28 11:03:44;;;;;;;11.75;1.65;;;;;;;14.31;53.64;103249.94;5093750;28;20059;-76
2022/01/28 11:06:10;;;;;;;10.98;2.13;;;;;;;13.70;54.58;103275.72;5057671;28;20455;-76
2022/01/28 11:08:35;;;;;;;8.57;1.88;;;;;;;13.20;55.63;103278.34;5101673;28;20019;-76
2022/01/28 11:11:01;;;;;;;13.65;2.22;;;;;;;12.90;56.79;103282.16;5077640;28;20483;-76
2022/01/28 11:13:27;;;;;;;16.42;3.00;;;;;;;12.62;58.93;103264.66;5087691;28;20391;-76
2022/01/28 11:15:54;;;;;;;11.13;2.13;;;;;;;12.28;57.85;103264.28;5069540;28;20247;-76
2022/01/28 11:18:20;;;;;;;8.27;1.48;;;;;;;12.30;59.01;103288.88;5093901;28;20106;-76
2022/01/28 11:21:03;;;;;;;9.27;1.85;;;;;;;12.05;60.60;103284.31;5077043;28;20081;-76
2022/01/28 11:23:51;;;;;;;10.93;1.65;;;;;;;12.17;59.16;103280.00;5092263;28;20027;-76
2022/01/28 11:26:23;;;;;;;6.57;1.60;;;;;;;12.26;59.28;103271.47;5090226;28;20351;-76
2022/01/28 11:28:51;;;;;;;13.18;2.22;;;;;;;12.43;59.34;103283.59;5079986;28;20024;-76
2022/01/28 11:31:39;;;;;;;14.35;2.30;;;;;;;12.34;58.23;103284.19;5074504;28;20031;-77
2022/01/28 11:34:18;;;;;;;9.95;1.90;;;;;;;12.20;59.87;103292.22;5078960;28;20495;-77
2022/01/28 11:36:44;;;;;;;7.72;1.60;;;;;;;11.98;61.08;103287.50;5088997;28;20090;-77
2022/01/28 11:39:32;;;;;;;6.90;1.35;;;;;;;11.91;59.86;103274.66;5094315;28;20558;-76
2022/01/28 11:42:14;;;;;;;10.00;1.55;;;;;;;12.44;59.75;103265.91;5096744;28;20030;-76
2022/01/28 11:44:52;;;;;;;5.72;0.95;;;;;;;13.34;57.89;103280.03;5086271;28;20208;-76
2022/01/28 11:47:36;;;;;;;10.05;1.20;;;;;;;14.15;56.38;103273.28;5084512;28;20035;-77
2022/01/28 11:50:13;;;;;;;12.05;2.45;;;;;;;14.44;53.56;103249.88;5097745;28;20019;-77
2022/01/28 11:52:41;;;;;;;7.13;1.60;;;;;;;14.77;53.58;103261.56;5099869;28;20027;-77
2022/01/28 11:55:23;;;;;;;13.50;2.40;;;;;;;14.51;54.37;103266.19;5098005;28;20031;-77
2022/01/28 11:58:08;;;;;;;6.75;1.20;;;;;;;13.84;53.74;103267.59;5104163;28;20378;-77
2022/01/28 12:00:35;;;;;;;10.18;1.83;;;;;;;13.28;54.95;103264.53;5075740;28;20070;-76
2022/01/28 12:03:13;;;;;;;12.10;1.80;;;;;;;12.83;56.18;103258.84;5100043;28;20046;-76
2022/01/28 12:05:38;;;;;;;11.70;2.25;;;;;;;12.66;56.21;103250.25;5093335;28;20433;-76
2022/01/28 12:08:04;;;;;;;12.27;2.55;;;;;;;12.42;58.06;103251.94;5098044;28;20360;-77
2022/01/28 12:10:32;;;;;;;15.10;2.25;;;;;;;11.88;58.74;103245.72;5100358;28;20028;-77
2022/01/28 12:13:00;;;;;;;7.80;1.77;;;;;;;11.56;59.98;103252.19;5096410;27;20028;-77
2022/01/28 12:15:32;;;;;;;10.30;1.65;;;;;;;11.43;60.96;103254.75;5099470;28;20035;-76
2022/01/28 12:18:06;;;;;;;10.85;2.35;;;;;;;11.00;59.66;103231.88;5098391;28;20040;-76
2022/01/28 12:20:42;;;;;;;7.97;1.45;;;;;;;11.31;60.58;103237.91;5098911;28;20503;-76
2022/01/28 12:23:11;;;;;;;9.82;1.65;;;;;;;11.17;61.00;103248.47;5076628;28;20430;-76
2022/01/28 12:25:36;;;;;;;9.95;1.77;;;;;;;10.84;59.08;103239.03;5078673;28;20036;-76
2022/01/28 12:28:20;;;;;;;11.73;1.70;;;;;;;10.72;62.05;103237.97;5097995;28;20024;-76
2022/01/28 12:31:01;;;;;;;17.02;1.67;;;;;;;10.44;61.34;103212.38;5097844;28;20020;-76
2022/01/28 12:33:29;;;;;;;14.68;2.15;;;;;;;10.62;62.60;103224.47;5096379;28;20019;-76
2022/01/28 12:35:57;;;;;;;10.85;1.95;;;;;;;10.54;62.99;103226.75;5098537;28;20031;-76
2022/01/28 12:38:28;;;;;;;10.55;1.90;;;;;;;10.31;62.48;103229.88;5074699;28;20078;-76
2022/01/28 12:40:54;;;;;;;10.32;1.73;;;;;;;10.05;62.11;103227.78;5100073;27;20050;-76
2022/01/28 12:43:23;;;;;;;8.82;1.40;;;;;;;9.93;64.32;103224.97;5092885;28;20077;-76
2022/01/28 12:46:05;;;;;;;13.63;1.85;;;;;;;9.87;63.34;103228.84;5097979;28;20431;-76
2022/01/28 12:48:31;;;;;;;14.40;2.60;;;;;;;9.70;64.17;103226.28;5097482;28;20110;-76
2022/01/28 12:50:58;;;;;;;13.25;1.65;;;;;;;9.67;64.45;103228.16;5080643;28;20024;-76
2022/01/28 12:53:35;;;;;;;15.27;1.98;;;;;;;9.68;65.33;103218.47;5101134;28;20024;-76
2022/01/28 12:56:04;;;;;;;9.63;1.85;;;;;;;9.65;66.24;103221.28;5093113;28;20103;-76
2022/01/28 12:58:36;;;;;;;6.30;2.35;;;;;;;9.56;64.53;103224.41;5094776;28;20028;-76
2022/01/28 13:01:07;;;;;;;14.93;2.70;;;;;;;9.54;64.80;103211.34;5098121;28;20038;-76
2022/01/28 13:03:37;;;;;;;14.77;2.28;;;;;;;9.32;64.62;103192.34;5099163;28;20052;-76
2022/01/28 13:09:14;;;;;;;15.50;2.30;;;;;;;8.95;67.14;103186.44;5098970;28;20074;-76